aviador You're here:

YCBP Decoded Metar

in
Report Time2017-09-24 22:00:00
UTC Time2017-09-24 23:02:04
Flight Rules vfr VFR
Wind110° at 15 kt
W.Decomp.*RWY 14: 13.0 kt HW 7.5 kt LCW
RWY 04: 5.1 kt HW 14.1 kt RCW
W.Rank110° ranks 17
Current wind is above 110° avg. (8.5)
Visibility9999 m
Phenomena:N/A
Clouds:N/A
Expected CloudBase > 5,200 ft AGL from Temp-Dew spread
CeilingNone
Temp15°C
Dew Point02°C (42% RH)
AAT8.0°C
QNH1011 hPa
Raw Report
METAR YCBP 242200Z AUTO 11015KT 9999 // NCD 15/02 Q1011=

Extra information for YCBP:More info

Social comments